createdAt,value
2022-11-15T00:00:11.256Z,86.18
2022-11-15T00:05:36.190Z,86.06
2022-11-15T00:11:01.396Z,86.02
2022-11-15T00:16:22.518Z,85.90
2022-11-15T00:21:43.231Z,85.76
2022-11-15T00:27:07.870Z,85.62
2022-11-15T00:32:33.708Z,85.54
2022-11-15T00:37:54.099Z,85.50
2022-11-15T00:43:14.347Z,85.48
2022-11-15T00:48:35.224Z,85.29
2022-11-15T00:53:55.740Z,85.31
2022-11-15T00:59:16.660Z,85.25
2022-11-15T01:04:37.180Z,85.16
2022-11-15T01:09:57.361Z,85.13
2022-11-15T01:15:17.726Z,84.98
2022-11-15T01:20:44.617Z,84.82
2022-11-15T01:26:07.116Z,84.76
2022-11-15T01:31:27.741Z,84.53
2022-11-15T01:36:48.455Z,84.54
2022-11-15T01:42:14.511Z,84.50
2022-11-15T01:47:52.523Z,84.43
2022-11-15T01:53:13.709Z,84.33
2022-11-15T01:58:35.188Z,84.23
2022-11-15T02:04:00.823Z,84.12
2022-11-15T02:09:21.694Z,83.97
2022-11-15T02:14:45.544Z,83.87
2022-11-15T02:20:41.674Z,83.75
2022-11-15T02:26:30.364Z,83.58
2022-11-15T02:32:02.969Z,83.48
2022-11-15T02:37:43.750Z,83.36
2022-11-15T02:43:32.326Z,83.30
2022-11-15T02:48:53.550Z,83.19
2022-11-15T02:54:19.186Z,83.11
2022-11-15T03:00:04.892Z,82.90
2022-11-15T03:05:47.735Z,82.65
2022-11-15T03:11:10.189Z,82.40
2022-11-15T03:16:54.457Z,82.28
2022-11-15T03:22:25.622Z,82.35
2022-11-15T03:27:51.815Z,82.56
2022-11-15T03:33:12.798Z,82.49
2022-11-15T03:38:36.258Z,82.37
2022-11-15T03:44:12.267Z,82.28
2022-11-15T03:49:36.152Z,82.28
2022-11-15T03:54:58.184Z,82.08
2022-11-15T04:00:18.824Z,81.79
2022-11-15T04:05:39.228Z,81.56
2022-11-15T04:11:02.264Z,81.42
2022-11-15T04:16:23.220Z,81.24
2022-11-15T04:22:02.583Z,81.28
2022-11-15T04:27:23.187Z,81.27
2022-11-15T04:32:43.509Z,81.33
2022-11-15T04:38:06.275Z,81.36
2022-11-15T04:43:26.687Z,81.30
2022-11-15T04:48:47.538Z,81.46
2022-11-15T04:54:08.128Z,81.52
2022-11-15T04:59:28.739Z,80.97
2022-11-15T05:04:49.769Z,80.86
2022-11-15T05:10:10.769Z,80.93
2022-11-15T05:15:31.404Z,81.07
2022-11-15T05:20:51.558Z,81.06
2022-11-15T05:26:12.762Z,81.14
2022-11-15T05:31:33.259Z,81.29
2022-11-15T05:36:54.741Z,81.24
2022-11-15T05:42:16.850Z,81.22
2022-11-15T05:47:39.515Z,81.05
2022-11-15T05:53:05.177Z,80.98
2022-11-15T05:58:26.363Z,80.98
2022-11-15T06:03:46.690Z,80.97
2022-11-15T06:09:07.202Z,80.95
2022-11-15T06:14:37.371Z,81.01
2022-11-15T06:19:57.654Z,81.32
2022-11-15T06:25:18.164Z,81.69
2022-11-15T06:30:38.575Z,81.92
2022-11-15T06:36:08.622Z,82.39
2022-11-15T06:41:39.675Z,82.46
2022-11-15T06:47:00.396Z,82.69
2022-11-15T06:52:20.904Z,82.76
2022-11-15T06:57:52.174Z,83.14
2022-11-15T07:03:12.382Z,83.30
2022-11-15T07:08:33.310Z,83.54
2022-11-15T07:13:54.064Z,83.74
2022-11-15T07:19:14.539Z,83.86
2022-11-15T07:24:34.954Z,83.72
2022-11-15T07:29:55.609Z,83.65
2022-11-15T07:35:16.184Z,83.50
2022-11-15T07:40:36.902Z,83.34
2022-11-15T07:45:59.287Z,83.14
2022-11-15T07:51:21.214Z,82.81
2022-11-15T07:56:42.647Z,82.39
2022-11-15T08:02:03.671Z,81.68
2022-11-15T08:07:24.672Z,80.85
2022-11-15T08:12:45.355Z,81.07
2022-11-15T08:18:12.831Z,81.17
2022-11-15T08:23:33.683Z,81.31
2022-11-15T08:28:54.343Z,81.26
2022-11-15T08:34:14.766Z,81.36
2022-11-15T08:39:35.156Z,81.27
2022-11-15T08:44:56.139Z,81.58
2022-11-15T08:50:17.003Z,81.45
2022-11-15T08:55:39.097Z,81.41
2022-11-15T09:00:59.827Z,81.03
2022-11-15T09:06:20.291Z,80.51
2022-11-15T09:11:41.316Z,80.50
2022-11-15T09:17:02.539Z,80.11
2022-11-15T09:22:23.418Z,79.59
2022-11-15T09:27:53.814Z,79.40
2022-11-15T09:33:14.531Z,78.98
2022-11-15T09:38:35.986Z,77.87
2022-11-15T09:44:05.355Z,75.03
2022-11-15T09:49:44.574Z,72.48
2022-11-15T09:54:55.499Z,70.62
2022-11-15T10:00:47.599Z,68.94
2022-11-15T10:05:49.774Z,66.24
2022-11-15T10:11:22.733Z,63.56
2022-11-15T10:16:29.676Z,62.42
2022-11-15T10:22:05.756Z,62.40
2022-11-15T10:27:14.352Z,63.44
2022-11-15T10:32:21.799Z,63.74
2022-11-15T10:37:31.734Z,63.73
2022-11-15T10:42:33.642Z,64.16
2022-11-15T10:47:39.562Z,65.01
2022-11-15T10:52:47.858Z,65.51
2022-11-15T10:57:53.611Z,65.81
2022-11-15T11:03:08.340Z,65.88
2022-11-15T11:08:12.928Z,66.27
2022-11-15T11:13:16.864Z,66.36
2022-11-15T11:18:43.813Z,66.40
2022-11-15T11:23:59.648Z,66.90
2022-11-15T11:29:25.235Z,67.19
2022-11-15T11:34:39.062Z,67.23
2022-11-15T11:39:48.468Z,66.72
2022-11-15T11:44:59.562Z,65.75
2022-11-15T11:50:11.903Z,64.35
2022-11-15T11:55:19.080Z,62.83
2022-11-15T12:00:30.388Z,61.66
2022-11-15T12:06:30.833Z,61.25
2022-11-15T12:12:10.366Z,59.61
2022-11-15T12:17:13.395Z,59.51
2022-11-15T12:22:24.083Z,60.02
2022-11-15T12:27:48.136Z,60.32
2022-11-15T12:33:00.141Z,60.75
2022-11-15T12:38:02.681Z,61.13
2022-11-15T12:43:16.749Z,61.86
2022-11-15T12:48:18.638Z,62.61
2022-11-15T12:53:26.364Z,62.74
2022-11-15T12:58:40.405Z,63.01
2022-11-15T13:04:19.985Z,63.16
2022-11-15T13:09:31.059Z,63.16
2022-11-15T13:14:40.539Z,63.32
2022-11-15T13:19:42.384Z,63.36
2022-11-15T13:24:44.265Z,63.49
2022-11-15T13:29:46.070Z,63.80
2022-11-15T13:34:51.940Z,64.15
2022-11-15T13:39:54.611Z,64.49
2022-11-15T13:44:59.204Z,64.74
2022-11-15T13:50:09.633Z,65.03
2022-11-15T13:55:20.766Z,65.31
2022-11-15T14:00:48.917Z,65.61
2022-11-15T14:06:16.097Z,65.91
2022-11-15T14:11:20.933Z,66.15
2022-11-15T14:16:43.778Z,66.30
2022-11-15T14:22:16.207Z,66.51
2022-11-15T14:27:27.083Z,66.76
2022-11-15T14:32:31.565Z,67.74
2022-11-15T14:37:38.520Z,69.00
2022-11-15T14:42:40.398Z,69.82
2022-11-15T14:47:42.792Z,70.04
2022-11-15T14:52:45.121Z,70.51
2022-11-15T14:57:47.569Z,70.67
2022-11-15T15:02:51.523Z,71.21
2022-11-15T15:07:54.476Z,71.86
2022-11-15T15:12:56.472Z,72.50
2022-11-15T15:17:58.276Z,72.51
2022-11-15T15:23:00.158Z,72.79
2022-11-15T15:28:03.234Z,72.98
2022-11-15T15:33:05.105Z,73.04
2022-11-15T15:38:07.086Z,73.29
2022-11-15T15:43:10.316Z,73.54
2022-11-15T15:48:14.552Z,73.91
2022-11-15T15:53:16.917Z,74.20
2022-11-15T15:58:18.689Z,74.04
2022-11-15T16:03:20.506Z,74.61
2022-11-15T16:08:25.029Z,75.02
2022-11-15T16:13:26.986Z,75.32
2022-11-15T16:18:35.679Z,75.51
2022-11-15T16:23:38.056Z,75.69
2022-11-15T16:28:39.812Z,75.93
2022-11-15T16:33:41.573Z,76.22
2022-11-15T16:38:43.375Z,76.37
2022-11-15T16:43:46.926Z,76.58
2022-11-15T16:48:49.462Z,76.73
2022-11-15T16:53:51.528Z,76.81
2022-11-15T16:59:00.627Z,76.62
2022-11-15T17:04:16.578Z,76.40
2022-11-15T17:09:24.724Z,76.25
2022-11-15T17:14:26.683Z,76.05
2022-11-15T17:19:28.564Z,75.85
2022-11-15T17:24:30.439Z,75.65
2022-11-15T17:29:32.319Z,75.36
2022-11-15T17:34:34.194Z,74.99
2022-11-15T17:39:35.999Z,74.64
2022-11-15T17:44:37.949Z,74.52
2022-11-15T17:49:40.952Z,74.42
2022-11-15T17:54:42.828Z,74.36
2022-11-15T17:59:44.588Z,74.24
2022-11-15T18:04:46.481Z,73.98
2022-11-15T18:09:48.260Z,73.64
2022-11-15T18:14:50.077Z,73.40
2022-11-15T18:19:51.910Z,73.58
2022-11-15T18:24:53.781Z,73.39
2022-11-15T18:29:55.626Z,73.16
2022-11-15T18:34:57.395Z,73.08
2022-11-15T18:39:59.211Z,72.85
2022-11-15T18:45:02.014Z,73.02
2022-11-15T18:50:04.019Z,73.01
2022-11-15T18:55:05.899Z,72.71
2022-11-15T19:00:09.231Z,72.70
2022-11-15T19:05:11.004Z,72.62
2022-11-15T19:10:12.968Z,72.44
2022-11-15T19:15:14.921Z,72.14
2022-11-15T19:20:16.786Z,71.82
2022-11-15T19:25:19.031Z,71.52
2022-11-15T19:30:20.930Z,71.49
2022-11-15T19:35:22.784Z,71.43
2022-11-15T19:40:24.620Z,71.53
2022-11-15T19:45:26.441Z,71.52
2022-11-15T19:50:28.240Z,71.37
2022-11-15T19:55:30.184Z,71.37
2022-11-15T20:00:32.117Z,71.40
2022-11-15T20:05:33.946Z,71.49
2022-11-15T20:10:35.972Z,71.66
2022-11-15T20:15:37.796Z,71.78
2022-11-15T20:20:40.175Z,71.89
2022-11-15T20:25:47.067Z,71.96
2022-11-15T20:30:52.729Z,72.03
2022-11-15T20:35:54.881Z,72.21
2022-11-15T20:41:00.130Z,72.32
2022-11-15T20:46:02.619Z,72.58
2022-11-15T20:51:16.262Z,72.86
2022-11-15T20:56:20.198Z,72.97
2022-11-15T21:01:24.611Z,73.06
2022-11-15T21:06:27.651Z,73.09
2022-11-15T21:11:48.320Z,73.22
2022-11-15T21:16:50.607Z,73.08
2022-11-15T21:21:52.468Z,73.08
2022-11-15T21:26:54.773Z,73.04
2022-11-15T21:31:56.778Z,72.97
2022-11-15T21:36:59.039Z,72.93
2022-11-15T21:42:00.899Z,72.97
2022-11-15T21:52:28.027Z,73.00
2022-11-15T21:57:30.340Z,73.05
2022-11-15T22:02:32.239Z,73.23
2022-11-15T22:07:34.100Z,73.38
2022-11-15T22:12:40.605Z,73.42
2022-11-15T22:18:00.680Z,73.46
2022-11-15T22:23:02.913Z,73.52
2022-11-15T22:28:04.917Z,73.59
2022-11-15T22:33:07.015Z,73.63
2022-11-15T22:38:09.570Z,73.69
2022-11-15T22:43:13.573Z,73.82
2022-11-15T22:48:16.605Z,73.88
2022-11-15T22:53:19.421Z,73.94
2022-11-15T22:58:23.629Z,73.90
2022-11-15T23:03:27.103Z,73.83
2022-11-15T23:08:29.098Z,73.85
2022-11-15T23:13:33.052Z,73.82
2022-11-15T23:18:40.992Z,73.91
2022-11-15T23:23:42.878Z,73.98
2022-11-15T23:28:44.755Z,74.13
2022-11-15T23:33:58.890Z,74.39
2022-11-15T23:39:02.225Z,74.52
2022-11-15T23:44:04.665Z,74.80
2022-11-15T23:49:06.674Z,74.99
2022-11-15T23:54:09.140Z,75.02
2022-11-15T23:59:11.102Z,75.22
